メインページ
METAR-TAF:

METAR-TAF

空港 :

レシフェ, ペルナンブーコ州, ブラジル

レシフェ/グアララペス・ジルベルト・フレイレ国際空港

緯度: 08-08S, 経度: 034-55W, 海抜: 19m

現時点の気象観測

当レポートは25分前の21:00(UTC)に作成
南東の風 9kt
気温 26°C
湿度 79%
気圧 1014 hPa
視程10km以上
高度1800ftの千切れ雲あり
高度5000ftの雲は散在している

METAR: SBRF 202100Z 13009KT 9999 BKN018 SCT050 26/22 Q1014

時間: 18:25 (21:25 UTC)

予報

当レポートは5時間25分前の16:00(UTC)に作成
予報は20日の 18時(UTC)から 21日の 18時(UTC)まで有効
南東の風 11kt
視程: 8000m
高度1800ftの雲は散在している
高度4000ftの雲は散在している

TAF: SBRF 201600Z 2018/2118 14011KT 8000 SCT018 SCT040 TN24/2108Z TX28 /2115Z RMK PEU

4,000以上の空港の気象観測と天気予報(METAR報とTAF報)

利用可能な観測所は地図上に黄色い丸と赤い丸で示す。

丸の上にカーソルを重ねると観測所名を参照できる。

次にクリックすると気象観測と天気予報を参照できる。

マップの切り替え:黒色「×」印の緑ボタンをクリックして拡大、「-」印の緑ボタンをクリックして縮小、緑色の三角印をクリックして隣りの地図に切り替え


METAR-TAF: